Le Mars, IA

5:45 AM CST on January 16, 2017 (GMT -0600)
Le Mars Municipal | | Change Station
Active Advisory: Winter Weather Advisory

Elev 1194 ft 42.78 °N, 96.19 °W | Updated 10 minutes ago

Overcast
Overcast
30 °F
Feels Like 24 °F
N
6
Wind Variable Wind from ENE

Today
High -- | Low -- °F
--% Chance of Precip.
Yesterday
High -- | Low -- °F
Precip. -- in
Pressure 30.10 in
Visibility 5.0 miles
Clouds Overcast 1400 ft
Windchill 24 °F
Dew Point 30 °F
Humidity 100%
Rainfall 0.01 in
Snow Depth Not available.
7:51 AM 5:17 PM
Waning Gibbous, 81% visible
METAR KLRJ 161135Z AUTO 06005KT 5SM -UP OVC014 M01/M01 A3010 RMK AO2
Pressure 30.10 in
Visibility 5.0 miles
Clouds Overcast 1400 ft
Windchill 24 °F
Dew Point 30 °F
Humidity 100%
Rainfall 0.01 in
Snow Depth Not available.
7:51 AM 5:17 PM
Waning Gibbous, 81% visible
METAR KLRJ 161135Z AUTO 06005KT 5SM -UP OVC014 M01/M01 A3010 RMK AO2

Get Your Daily Forecast Email!

Thanks for signing up!

Be on the lookout for a verification email in your inbox.

You'll start receiving the daily forecast at 8 AM.

×

10-Day Weather Forecast

Almanac

Astronomy

Jan. 16, 2017 Rise Set
Actual Time
Civil Twilight
Nautical Twilight
Astronomical Twilight
Moon
Length of Visible Light
Length of Day
Tomorrow will be .
, % of the Moon is Illuminated

Today's Extremes

State Highs State Lows

Community

WunderPhotos

Upload Photos

1,962,540 photos uploaded!

WunderBlog® & News

Nearby

Air Quality

  Air Quality AQ Index Pollutant
Not available.

Snow Depth

Station Depth Elevation

Earthquake Activity

City Distance Mag. Time & Date
Minimum magnitude displayed is 2.5.

Coastal Water Temperatures

Place Temperature

Stations

Nearby Weather Stations

Station Location Temp. Windchill Dew Point Humidity Wind Precip. Elev Updated Type
                   

Watches & Warnings

Winter Weather Advisory
Issued: 3:50 AM CST Jan. 16, 2017 – National Weather Service

... Winter Weather Advisory remains in effect until midnight CST
tonight...

* timing... a wintry mix of precipitation will continue to spread
northward into the area today... with heaviest precipitation
occurring this afternoon. Freezing rain will occur... as well as
some isolated pockets of sleet. As colder air above the surface
moves in this evening... the precipitation will change to light
snow.

* Accumulations... ice accumulations will range from a tenth to two
tenths of an inch... finishing up with a half an inch or less of
snow.

Precautionary/preparedness actions...

A Winter Weather Advisory means that periods of snow... sleet... or
freezing rain will cause travel difficulties. Be prepared for
slippery roads and limited visibilities... and use caution while
driving.